• Join FlightAware (Why Join?)
  • Login
  • US Flag 
03:14PM EDT


 

Airport Tracker/Info


-or-


 

Live Flight TrackerFlight Track Log ✈ OPT429 ✈ 21-Jun-2014 ✈ KMDW - KARR

Flight Track Log - Related Links

Times and Time Zones

All times are in EDT time to prevent confusion due to time zone crossing. See the OPT429 flight status page for this flight to view local times or setup timezone preferences in your user account.

Time Position Orientation Groundspeed Altitude Reporting Facility
EDT Latitude Longitude Course Direction KTS MPH feet Rate Location/Type
09:39AM 41.8333 -87.7667 281° West 206 237 2,600  Level Chicago TRACON
09:40AM 41.8100 -87.8219 240° Southwest 200 230 3,000 180 Climbing Chicago Center
09:41AM 41.7858 -87.8969 247° West 218 251 3,000  Level Chicago Center
09:42AM 41.7819 -87.9733 266° West 191 220 3,000  Level Chicago Center
09:43AM 41.7806 -88.0339 268° West 166 191 3,100  Climbing Chicago Center
09:44AM 41.8602 -88.2045 281° West  Level FlightAware Approximate
09:44AM 41.7792 -88.1128 269° West 199 229 3,000  Level Chicago Center
09:45AM 41.7772 -88.1894 268° West 205 236 3,000  Level Chicago Center
09:46AM 41.7731 -88.2622 266° West 202 232 3,000  Level Chicago Center
09:47AM 41.7389 -88.3269 235° Southwest 200 230 3,000  Level Chicago Center
09:48AM 41.7097 -88.3872 237° Southwest 196 226 3,000  Level Chicago Center
09:49AM 41.6858 -88.4564 245° Southwest 200 230 3,000  Level Chicago Center
09:50AM 41.6836 -88.5269 268° West 191 220 3,000  Level Chicago Center
09:51AM 41.6811 -88.5992 267° West 192 221 3,000  Level Chicago Center
09:52AM 41.6800 -88.6772 269° West 193 222 3,000  Level Chicago Center
09:53AM 41.6833 -88.7481 274° West 193 222 3,000  Level Chicago Center
09:54AM 41.7428 -88.7481 360° North 194 223 3,000 -180 Level Chicago Center
09:55AM 41.7653 -88.6861 64° Northeast 185 213 2,700 -180 Descending Chicago Center
09:56AM 41.7689 -88.6272 85° East 160 184 2,700 -360 Level Chicago Center
09:57AM 41.7689 -88.5706 90° East 141 162 2,000 -720 Descending Chicago Center
09:58AM 41.7700 -88.5253 88° East 123 142 1,300 -540 Descending Chicago Center
09:59AM 41.7694 -88.4875 91° East 121 139 1,000 -300 Descending Chicago Center